Time;durP1;ratioP1;P1;durP2;ratioP2;P2;SDS_P1;SDS_P2;PMS_P1;PMS_P2;Temp;Humidity;BMP_temperature;BMP_pressure;BME280_temperature;BME280_humidity;BME280_pressure;Samples;Min_cycle;Max_cycle;Signal;HPM_P1;HPM_P2
2023/09/10 00:00:32;;;;;;;;;;;22.40;42.20;;;;;;5030694;28;19913;-69
2023/09/10 00:02:59;;;;;;;;;;;23.00;42.20;;;;;;5030325;28;19913;-69
2023/09/10 00:05:25;;;;;;;;;;;22.80;43.30;;;;;;5031146;28;19921;-69
2023/09/10 00:07:53;;;;;;;;;;;22.80;40.90;;;;;;5033329;28;19913;-67
2023/09/10 00:10:19;;;;;;;;;;;22.90;41.40;;;;;;5034444;28;19955;-69
2023/09/10 00:12:46;;;;;;;;;;;22.80;41.50;;;;;;5033111;28;19913;-68
2023/09/10 00:15:13;;;;;;;;;;;23.60;39.20;;;;;;5030965;28;19917;-69
2023/09/10 00:17:39;;;;;;;;;;;22.90;39.90;;;;;;5032241;28;19989;-69
2023/09/10 00:20:07;;;;;;;;;;;22.70;40.00;;;;;;5030605;28;19920;-67
2023/09/10 00:22:34;;;;;;;;;;;22.20;41.30;;;;;;5031825;28;19951;-67
2023/09/10 00:25:02;;;;;;;;;;;22.50;42.70;;;;;;5031980;28;19921;-69
2023/09/10 00:27:28;;;;;;;;;;;22.80;40.60;;;;;;5032450;28;20252;-69
2023/09/10 00:29:55;;;;;;;;;;;23.20;41.80;;;;;;5031089;28;19921;-69
2023/09/10 00:32:22;;;;;;;;;;;23.20;40.90;;;;;;5029352;28;20318;-69
2023/09/10 00:34:48;;;;;;;;;;;23.40;41.40;;;;;;5028112;28;19917;-68
2023/09/10 00:37:16;;;;;;;;;;;23.80;41.90;;;;;;5028696;28;19933;-68
2023/09/10 00:39:43;;;;;;;;;;;23.80;40.80;;;;;;5028568;28;20401;-68
2023/09/10 00:42:10;;;;;;;;;;;24.20;40.70;;;;;;5029727;28;19921;-69
2023/09/10 00:44:37;;;;;;;;;;;24.50;40.20;;;;;;5031414;28;19932;-69
2023/09/10 00:47:04;;;;;;;;;;;24.90;40.10;;;;;;5032463;28;19913;-69
2023/09/10 00:49:31;;;;;;;;;;;25.20;39.60;;;;;;5024702;28;20024;-69
2023/09/10 00:52:01;;;;;;;;;;;24.80;39.90;;;;;;5026080;28;19920;-69
2023/09/10 00:54:30;;;;;;;;;;;24.70;40.70;;;;;;5028857;28;20375;-69
2023/09/10 00:57:20;;;;;;;;;;;24.70;40.40;;;;;;5026949;28;19925;-68
2023/09/10 00:59:45;;;;;;;;;;;25.20;39.90;;;;;;5025830;28;19913;-67
2023/09/10 01:02:16;;;;;;;;;;;25.10;38.80;;;;;;5027819;28;19923;-69
2023/09/10 01:04:42;;;;;;;;;;;25.30;37.00;;;;;;5030349;28;20366;-69
2023/09/10 01:07:09;;;;;;;;;;;25.10;39.70;;;;;;5032633;28;19913;-69
2023/09/10 01:09:36;;;;;;;;;;;25.40;37.80;;;;;;5030648;28;19940;-68
2023/09/10 01:12:08;;;;;;;;;;;25.20;38.60;;;;;;5030501;28;19917;-68
2023/09/10 01:14:40;;;;;;;;;;;24.80;39.30;;;;;;5028242;28;20376;-69
2023/09/10 01:17:09;;;;;;;;;;;24.90;40.10;;;;;;5032809;28;20374;-69
2023/09/10 01:19:56;;;;;;;;;;;24.90;38.50;;;;;;5032186;28;19975;-69
2023/09/10 01:22:32;;;;;;;;;;;24.90;38.70;;;;;;4989683;28;20466;-68
2023/09/10 01:24:59;;;;;;;;;;;24.90;38.40;;;;;;5027941;28;20358;-69
2023/09/10 01:27:26;;;;;;;;;;;24.90;38.10;;;;;;5029565;28;20390;-69
2023/09/10 01:29:52;;;;;;;;;;;24.90;37.10;;;;;;5031590;28;20458;-69
2023/09/10 01:32:38;;;;;;;;;;;25.10;38.10;;;;;;5029095;28;20370;-68
2023/09/10 01:35:13;;;;;;;;;;;25.00;38.70;;;;;;5028907;28;19913;-68
2023/09/10 01:37:46;;;;;;;;;;;25.10;36.70;;;;;;5028139;28;20015;-68
2023/09/10 01:40:16;;;;;;;;;;;25.10;37.20;;;;;;5031139;28;20008;-69
2023/09/10 01:42:43;;;;;;;;;;;25.20;36.60;;;;;;5033504;28;20330;-69
2023/09/10 01:45:10;;;;;;;;;;;25.10;37.80;;;;;;5030410;28;19932;-69
2023/09/10 01:47:37;;;;;;;;;;;24.80;37.20;;;;;;5029317;28;20012;-69
2023/09/10 01:50:05;;;;;;;;;;;24.60;36.30;;;;;;5031197;28;19909;-69
2023/09/10 01:52:32;;;;;;;;;;;24.50;39.60;;;;;;5030004;28;19924;-69
2023/09/10 01:54:59;;;;;;;;;;;24.70;37.80;;;;;;5029181;28;19913;-69
2023/09/10 01:57:25;;;;;;;;;;;25.00;37.40;;;;;;5029365;28;20015;-69
2023/09/10 01:59:52;;;;;;;;;;;25.10;37.20;;;;;;5029570;28;20362;-68
2023/09/10 02:02:19;;;;;;;;;;;25.00;36.70;;;;;;5031552;28;19936;-68
2023/09/10 02:04:45;;;;;;;;;;;25.10;36.80;;;;;;5032513;28;19913;-69
2023/09/10 02:07:12;;;;;;;;;;;25.10;37.10;;;;;;5029966;28;19913;-68
2023/09/10 02:09:39;;;;;;;;;;;25.30;35.50;;;;;;5029428;28;20074;-67
2023/09/10 02:12:05;;;;;;;;;;;25.30;34.60;;;;;;5029391;28;19913;-68
2023/09/10 02:14:32;;;;;;;;;;;25.10;34.00;;;;;;5029918;28;19921;-69
2023/09/10 02:16:58;;;;;;;;;;;25.10;34.50;;;;;;5030358;28;19921;-69
2023/09/10 02:19:25;;;;;;;;;;;25.20;34.80;;;;;;5028653;28;19920;-69
2023/09/10 02:21:53;;;;;;;;;;;25.30;35.10;;;;;;5027381;28;19921;-68
2023/09/10 02:24:20;;;;;;;;;;;25.40;33.20;;;;;;5026580;28;19960;-67
2023/09/10 02:26:46;;;;;;;;;;;25.10;34.50;;;;;;5029388;28;20293;-67
2023/09/10 02:29:13;;;;;;;;;;;24.50;32.30;;;;;;5028366;28;19920;-66
2023/09/10 02:31:40;;;;;;;;;;;24.40;34.80;;;;;;5030290;28;20379;-67
2023/09/10 02:34:06;;;;;;;;;;;24.50;34.60;;;;;;5033002;28;19952;-67
2023/09/10 02:36:33;;;;;;;;;;;24.40;30.40;;;;;;5031081;28;19928;-68
2023/09/10 02:39:03;;;;;;;;;;;24.30;33.40;;;;;;5028409;28;19913;-67
2023/09/10 02:41:30;;;;;;;;;;;24.30;33.50;;;;;;5045591;28;20374;-67
2023/09/10 02:43:56;;;;;;;;;;;24.50;31.80;;;;;;5051705;28;19910;-67
2023/09/10 02:46:25;;;;;;;;;;;24.10;32.40;;;;;;5035002;28;20023;-68
2023/09/10 02:48:51;;;;;;;;;;;23.90;31.80;;;;;;5037450;28;20009;-68
2023/09/10 02:51:18;;;;;;;;;;;23.70;31.40;;;;;;4987137;28;20348;-68
2023/09/10 02:53:45;;;;;;;;;;;24.10;30.90;;;;;;4983530;28;20344;-68
2023/09/10 02:56:11;;;;;;;;;;;23.80;34.90;;;;;;4995907;28;19925;-67
2023/09/10 02:58:39;;;;;;;;;;;24.20;31.00;;;;;;4992783;28;20298;-67
2023/09/10 03:01:06;;;;;;;;;;;24.30;30.50;;;;;;4997617;28;19961;-67
2023/09/10 03:03:33;;;;;;;;;;;23.90;30.80;;;;;;4996446;28;19937;-68
2023/09/10 03:06:00;;;;;;;;;;;23.60;31.50;;;;;;4995004;28;19918;-67
2023/09/10 03:08:27;;;;;;;;;;;23.30;30.50;;;;;;4990158;28;19918;-68
2023/09/10 03:10:53;;;;;;;;;;;23.70;32.10;;;;;;4994475;28;20332;-68
2023/09/10 03:13:20;;;;;;;;;;;23.90;32.80;;;;;;4996843;28;19914;-67
2023/09/10 03:15:48;;;;;;;;;;;24.40;33.80;;;;;;4994182;28;19975;-68
2023/09/10 03:18:14;;;;;;;;;;;24.90;32.90;;;;;;4992980;28;20732;-68
2023/09/10 03:20:41;;;;;;;;;;;24.90;31.10;;;;;;4991340;28;20337;-68
2023/09/10 03:23:08;;;;;;;;;;;24.90;33.60;;;;;;4996322;28;20394;-69
2023/09/10 03:25:38;;;;;;;;;;;25.10;33.40;;;;;;4986811;28;19960;-68
2023/09/10 03:28:05;;;;;;;;;;;25.20;34.10;;;;;;4991730;28;19917;-69
2023/09/10 03:30:32;;;;;;;;;;;25.30;32.90;;;;;;4993047;28;19914;-68
2023/09/10 03:33:00;;;;;;;;;;;25.20;31.90;;;;;;4994282;28;19937;-68
2023/09/10 03:35:26;;;;;;;;;;;25.20;32.20;;;;;;4994144;28;21810;-68
2023/09/10 03:37:53;;;;;;;;;;;25.50;33.70;;;;;;5005382;28;19921;-65
2023/09/10 03:40:20;;;;;;;;;;;25.40;32.40;;;;;;4993957;28;19960;-66
2023/09/10 03:42:46;;;;;;;;;;;25.00;33.00;;;;;;4992073;28;20004;-68
2023/09/10 03:45:13;;;;;;;;;;;25.00;33.20;;;;;;4988994;28;20068;-69
2023/09/10 03:47:40;;;;;;;;;;;25.20;32.50;;;;;;4994531;28;19926;-70
2023/09/10 03:50:06;;;;;;;;;;;25.30;31.10;;;;;;5010331;28;20005;-68
2023/09/10 03:52:33;;;;;;;;;;;25.40;29.90;;;;;;4994713;28;19917;-69
2023/09/10 03:55:00;;;;;;;;;;;25.30;32.80;;;;;;4988116;28;19917;-68
2023/09/10 03:57:30;;;;;;;;;;;25.30;33.50;;;;;;4988362;28;20456;-70
2023/09/10 03:59:57;;;;;;;;;;;25.50;29.80;;;;;;4992625;28;19920;-68
2023/09/10 04:02:24;;;;;;;;;;;24.70;29.60;;;;;;4985269;28;19957;-68
2023/09/10 04:04:51;;;;;;;;;;;23.90;31.70;;;;;;4988887;28;19917;-68
2023/09/10 04:07:18;;;;;;;;;;;24.40;31.30;;;;;;4989372;28;19914;-68
2023/09/10 04:09:44;;;;;;;;;;;24.90;32.20;;;;;;4991344;28;19922;-68
2023/09/10 04:12:11;;;;;;;;;;;25.00;33.20;;;;;;4988519;28;19921;-68
2023/09/10 04:14:38;;;;;;;;;;;24.90;32.10;;;;;;4989066;28;19949;-68
2023/09/10 04:17:04;;;;;;;;;;;25.00;32.40;;;;;;4990155;28;19972;-69
2023/09/10 04:19:31;;;;;;;;;;;25.10;31.60;;;;;;4990972;28;20038;-67
2023/09/10 04:21:58;;;;;;;;;;;24.90;30.40;;;;;;4991561;28;19976;-68
2023/09/10 04:24:25;;;;;;;;;;;24.30;29.30;;;;;;4991057;28;19924;-68
2023/09/10 04:26:51;;;;;;;;;;;23.30;29.60;;;;;;4988958;28;19922;-68
2023/09/10 04:29:18;;;;;;;;;;;23.00;31.60;;;;;;4990687;28;19914;-68
2023/09/10 04:31:45;;;;;;;;;;;23.20;31.70;;;;;;4989629;28;19913;-67
2023/09/10 04:34:11;;;;;;;;;;;23.60;32.80;;;;;;4986514;28;19924;-68
2023/09/10 04:36:38;;;;;;;;;;;23.90;32.10;;;;;;4986908;28;20434;-67
2023/09/10 04:39:13;;;;;;;;;;;23.90;31.40;;;;;;4989553;28;19910;-68
2023/09/10 04:41:40;;;;;;;;;;;24.40;30.00;;;;;;4989560;28;19921;-67
2023/09/10 04:44:07;;;;;;;;;;;24.30;31.20;;;;;;4992406;28;19921;-68
2023/09/10 04:46:33;;;;;;;;;;;24.30;31.40;;;;;;4988067;28;19914;-67
2023/09/10 04:49:00;;;;;;;;;;;24.10;28.90;;;;;;4991428;28;19914;-67
2023/09/10 04:51:27;;;;;;;;;;;23.70;28.50;;;;;;4989700;28;19925;-68
2023/09/10 04:53:54;;;;;;;;;;;23.30;29.10;;;;;;4987643;28;20318;-67
2023/09/10 04:56:21;;;;;;;;;;;23.20;30.20;;;;;;4988872;28;19976;-67
2023/09/10 04:58:47;;;;;;;;;;;23.60;31.70;;;;;;4988986;28;19920;-68
2023/09/10 05:01:15;;;;;;;;;;;23.70;31.90;;;;;;4989038;28;19923;-68
2023/09/10 05:03:41;;;;;;;;;;;23.90;33.50;;;;;;4991485;28;19918;-68
2023/09/10 05:06:09;;;;;;;;;;;23.90;31.00;;;;;;4989194;28;19925;-68
2023/09/10 05:08:36;;;;;;;;;;;23.70;30.80;;;;;;4986680;28;20000;-68
2023/09/10 05:11:02;;;;;;;;;;;23.60;31.00;;;;;;4991417;28;19930;-69
2023/09/10 05:13:29;;;;;;;;;;;23.40;30.50;;;;;;4987208;28;19920;-68
2023/09/10 05:15:57;;;;;;;;;;;23.70;32.30;;;;;;4991764;28;19944;-68
2023/09/10 05:18:24;;;;;;;;;;;23.40;29.70;;;;;;4987402;28;19914;-68
2023/09/10 05:20:54;;;;;;;;;;;23.10;29.60;;;;;;4987795;28;19917;-68
2023/09/10 05:23:26;;;;;;;;;;;23.30;31.10;;;;;;4989203;28;19925;-69
2023/09/10 05:25:53;;;;;;;;;;;23.30;31.00;;;;;;4987360;28;19964;-68
2023/09/10 05:28:20;;;;;;;;;;;23.20;32.00;;;;;;4989439;28;20430;-69
2023/09/10 05:30:46;;;;;;;;;;;23.50;32.20;;;;;;4990346;28;20367;-68
2023/09/10 05:33:13;;;;;;;;;;;23.40;30.50;;;;;;4990032;28;20310;-69
2023/09/10 05:35:40;;;;;;;;;;;23.50;31.90;;;;;;4982132;28;20371;-68
2023/09/10 05:38:10;;;;;;;;;;;23.20;33.10;;;;;;4983638;28;19987;-69
2023/09/10 05:40:36;;;;;;;;;;;23.00;32.60;;;;;;4983447;28;19918;-68
2023/09/10 05:43:04;;;;;;;;;;;23.10;32.50;;;;;;4988290;28;19913;-68
2023/09/10 05:45:34;;;;;;;;;;;22.90;32.30;;;;;;4985323;28;19921;-68
2023/09/10 05:48:01;;;;;;;;;;;23.00;32.20;;;;;;4986724;28;20374;-69
2023/09/10 05:50:27;;;;;;;;;;;22.90;31.60;;;;;;4988882;28;19957;-68
2023/09/10 05:52:57;;;;;;;;;;;22.60;31.60;;;;;;4991746;28;20223;-69
2023/09/10 05:55:24;;;;;;;;;;;22.60;32.40;;;;;;4988055;28;19921;-68
2023/09/10 05:57:52;;;;;;;;;;;22.90;32.50;;;;;;4991091;28;20004;-68
2023/09/10 06:00:19;;;;;;;;;;;22.70;31.30;;;;;;4990077;28;20442;-67
2023/09/10 06:02:46;;;;;;;;;;;22.40;32.10;;;;;;5006757;28;19918;-68
2023/09/10 06:05:13;;;;;;;;;;;22.50;33.80;;;;;;4986752;28;19926;-67
2023/09/10 06:07:39;;;;;;;;;;;22.50;33.10;;;;;;4988986;28;20283;-68
2023/09/10 06:10:08;;;;;;;;;;;22.60;32.50;;;;;;4990590;28;20437;-67
2023/09/10 06:12:37;;;;;;;;;;;22.60;32.40;;;;;;4991454;28;19914;-65
2023/09/10 06:15:05;;;;;;;;;;;22.40;32.40;;;;;;4984292;28;20371;-66
2023/09/10 06:17:32;;;;;;;;;;;22.30;33.30;;;;;;4984272;28;19922;-67
2023/09/10 06:19:58;;;;;;;;;;;22.40;32.70;;;;;;4981788;28;19945;-66
2023/09/10 06:22:25;;;;;;;;;;;22.20;34.50;;;;;;4986566;28;19921;-67
2023/09/10 06:24:52;;;;;;;;;;;22.10;38.20;;;;;;4989091;28;20278;-66
2023/09/10 06:27:18;;;;;;;;;;;21.80;40.30;;;;;;4983482;28;19914;-69
2023/09/10 06:29:45;;;;;;;;;;;21.60;40.20;;;;;;4984260;28;19953;-65
2023/09/10 06:32:12;;;;;;;;;;;21.60;41.00;;;;;;4982812;28;19917;-66
2023/09/10 06:34:39;;;;;;;;;;;21.30;41.30;;;;;;4993010;28;19985;-69
2023/09/10 06:37:06;;;;;;;;;;;21.00;42.40;;;;;;4984337;28;20405;-67
2023/09/10 06:39:38;;;;;;;;;;;20.70;43.00;;;;;;4980969;28;20378;-67
2023/09/10 06:42:08;;;;;;;;;;;20.50;43.40;;;;;;4982941;28;19920;-67
2023/09/10 06:44:35;;;;;;;;;;;20.20;44.30;;;;;;4984469;28;20302;-68
2023/09/10 06:47:02;;;;;;;;;;;20.20;45.10;;;;;;4983152;28;19918;-68
2023/09/10 06:49:28;;;;;;;;;;;20.00;45.30;;;;;;4980085;28;20299;-67
2023/09/10 06:51:56;;;;;;;;;;;19.80;46.00;;;;;;4980641;28;20984;-67
2023/09/10 06:54:24;;;;;;;;;;;19.60;46.30;;;;;;4981610;28;19920;-68
2023/09/10 06:56:51;;;;;;;;;;;19.60;47.10;;;;;;4983843;28;19929;-68
2023/09/10 06:59:17;;;;;;;;;;;19.30;47.10;;;;;;4985509;28;20009;-68
2023/09/10 07:01:44;;;;;;;;;;;19.40;46.80;;;;;;4980811;28;19914;-69
2023/09/10 07:04:18;;;;;;;;;;;19.50;47.60;;;;;;4983605;28;20362;-67
2023/09/10 07:06:45;;;;;;;;;;;19.20;47.80;;;;;;4978827;28;20071;-68
2023/09/10 07:09:12;;;;;;;;;;;19.10;48.40;;;;;;4977825;28;19941;-68
2023/09/10 07:11:38;;;;;;;;;;;18.90;48.70;;;;;;4981876;28;19922;-67
2023/09/10 07:14:05;;;;;;;;;;;18.70;49.00;;;;;;4983949;28;19922;-70
2023/09/10 07:16:34;;;;;;;;;;;18.70;49.00;;;;;;4983290;28;20382;-66
2023/09/10 07:19:01;;;;;;;;;;;18.70;49.00;;;;;;4983575;28;19984;-66
2023/09/10 07:21:28;;;;;;;;;;;18.70;49.20;;;;;;4984378;28;19937;-69
2023/09/10 07:23:55;;;;;;;;;;;18.70;49.20;;;;;;4983983;28;19918;-68
2023/09/10 07:26:21;;;;;;;;;;;18.60;49.40;;;;;;4978455;28;20164;-68
2023/09/10 07:28:48;;;;;;;;;;;18.60;49.30;;;;;;4981899;28;19954;-69
2023/09/10 07:31:14;;;;;;;;;;;18.50;49.60;;;;;;4990716;28;19929;-68
2023/09/10 07:33:41;;;;;;;;;;;18.40;49.90;;;;;;4990063;28;19921;-68
2023/09/10 07:36:08;;;;;;;;;;;18.20;50.10;;;;;;4988891;28;20017;-68
2023/09/10 07:38:35;;;;;;;;;;;18.10;50.50;;;;;;4992594;28;19917;-68
2023/09/10 09:24:10;;;;;;;6.07;2.03;;;14.50;68.70;;;;;;5064090;27;20435;-66
2023/09/10 09:26:39;;;;;;;7.43;2.38;;;14.30;70.30;;;;;;5062231;28;20030;-67
2023/09/10 09:29:08;;;;;;;7.20;2.92;;;14.30;71.80;;;;;;5062479;28;20166;-68
2023/09/10 09:31:36;;;;;;;9.48;2.35;;;14.20;73.20;;;;;;5065911;28;20060;-68
2023/09/10 09:34:04;;;;;;;9.98;1.88;;;14.20;74.50;;;;;;5064887;28;20029;-67
2023/09/10 09:36:36;;;;;;;4.30;1.95;;;14.20;75.30;;;;;;5062334;28;20037;-70
2023/09/10 09:39:07;;;;;;;6.22;1.90;;;14.10;75.80;;;;;;5065830;28;20032;-68
2023/09/10 09:41:37;;;;;;;6.70;2.28;;;14.10;76.20;;;;;;5062600;28;20474;-66
2023/09/10 09:44:05;;;;;;;4.78;1.60;;;14.00;76.10;;;;;;5076230;28;20036;-67
2023/09/10 09:46:34;;;;;;;5.40;1.70;;;13.90;76.40;;;;;;5069905;28;20405;-67
2023/09/10 09:49:01;;;;;;;5.43;1.73;;;13.80;76.70;;;;;;5078248;28;20029;-67
2023/09/10 09:51:30;;;;;;;7.18;2.97;;;13.70;77.30;;;;;;5062458;28;20020;-65
2023/09/10 09:53:57;;;;;;;7.25;2.30;;;13.70;78.10;;;;;;5065823;28;20037;-67
2023/09/10 09:56:24;;;;;;;7.72;2.80;;;13.70;78.10;;;;;;5059631;28;20131;-65
2023/09/10 09:58:56;;;;;;;9.55;2.80;;;13.60;78.30;;;;;;5075718;28;20120;-65
2023/09/10 10:01:25;;;;;;;7.53;2.30;;;13.60;78.60;;;;;;5066058;28;20032;-69
2023/09/10 10:03:53;;;;;;;4.68;2.00;;;13.60;79.00;;;;;;5069843;28;20037;-68
2023/09/10 10:06:20;;;;;;;6.65;2.55;;;13.60;79.40;;;;;;5072774;28;20036;-69
2023/09/10 10:08:51;;;;;;;5.55;2.10;;;13.50;79.50;;;;;;5064312;28;20127;-68
2023/09/10 10:11:30;;;;;;;8.38;2.65;;;13.50;79.80;;;;;;5071217;28;20033;-68
2023/09/10 10:14:03;;;;;;;10.38;2.72;;;13.40;79.80;;;;;;5069611;28;20542;-67
2023/09/10 10:16:31;;;;;;;6.55;2.65;;;13.40;80.30;;;;;;5068253;28;20020;-67
2023/09/10 10:18:59;;;;;;;9.32;2.33;;;13.40;80.30;;;;;;5062221;28;20032;-68
2023/09/10 10:21:27;;;;;;;9.85;2.60;;;13.30;80.40;;;;;;5065570;28;20089;-70
2023/09/10 10:23:56;;;;;;;7.65;2.45;;;13.30;80.60;;;;;;5074665;28;20452;-68
2023/09/10 10:26:24;;;;;;;8.98;2.15;;;13.30;81.10;;;;;;5067978;28;20027;-68
2023/09/10 10:28:52;;;;;;;7.45;1.83;;;13.20;81.40;;;;;;5066250;28;20067;-69
2023/09/10 10:31:25;;;;;;;5.35;2.67;;;13.20;81.70;;;;;;5067017;28;20381;-68
2023/09/10 10:34:16;;;;;;;5.82;1.77;;;13.10;82.10;;;;;;5067981;28;20465;-68
2023/09/10 10:37:07;;;;;;;7.10;1.88;;;13.10;82.00;;;;;;5052220;28;20033;-67
2023/09/10 10:40:11;;;;;;;6.38;1.88;;;13.10;82.40;;;;;;5057351;28;20033;-68
2023/09/10 10:42:47;;;;;;;8.85;2.30;;;13.10;82.60;;;;;;5054847;28;20098;-68
2023/09/10 10:45:18;;;;;;;9.23;2.30;;;12.90;83.00;;;;;;5059898;28;20103;-68
2023/09/10 10:47:48;;;;;;;8.02;2.47;;;12.80;83.20;;;;;;5051042;28;20029;-68
2023/09/10 10:50:25;;;;;;;9.95;3.45;;;12.90;83.50;;;;;;5056459;28;20059;-68
2023/09/10 10:52:59;;;;;;;10.13;3.90;;;12.80;83.50;;;;;;5050056;28;20524;-67
2023/09/10 10:55:27;;;;;;;8.23;3.63;;;12.70;84.10;;;;;;5053188;28;20052;-68
2023/09/10 10:57:56;;;;;;;13.13;4.10;;;12.60;83.90;;;;;;5055243;28;20489;-68
2023/09/10 11:00:24;;;;;;;10.18;4.38;;;12.60;84.60;;;;;;5051242;28;20439;-67
2023/09/10 11:03:11;;;;;;;9.38;4.57;;;12.50;85.00;;;;;;5047044;28;20032;-69
2023/09/10 11:05:54;;;;;;;11.02;4.85;;;12.40;85.00;;;;;;5041715;28;20035;-68
2023/09/10 11:08:33;;;;;;;18.67;10.25;;;12.40;86.40;;;;;;5048246;28;20033;-68
2023/09/10 11:11:03;;;;;;;29.77;13.80;;;12.40;85.80;;;;;;5053206;28;20480;-68
2023/09/10 11:13:32;;;;;;;32.50;16.27;;;12.30;86.10;;;;;;5054880;28;20572;-68
2023/09/10 11:16:05;;;;;;;33.53;18.38;;;12.30;86.50;;;;;;5048729;28;20446;-68
2023/09/10 11:18:38;;;;;;;38.17;19.05;;;12.50;85.80;;;;;;5043803;28;20048;-67
2023/09/10 11:21:12;;;;;;;40.92;20.98;;;12.40;86.20;;;;;;5047109;28;20037;-67
2023/09/10 11:24:05;;;;;;;39.75;20.23;;;12.40;86.10;;;;;;5055053;28;20088;-68
2023/09/10 11:26:32;;;;;;;38.90;21.20;;;12.40;86.20;;;;;;5054554;28;20036;-68
2023/09/10 11:29:04;;;;;;;44.70;22.65;;;12.40;86.30;;;;;;5045654;28;20070;-67
2023/09/10 11:31:38;;;;;;;36.80;21.02;;;12.40;86.40;;;;;;5041995;28;20036;-69
2023/09/10 11:34:18;;;;;;;34.95;20.50;;;12.30;86.80;;;;;;5047848;28;20116;-69
2023/09/10 11:36:58;;;;;;;38.97;21.20;;;12.20;86.80;;;;;;5048768;28;20131;-68
2023/09/10 11:39:25;;;;;;;42.95;22.77;;;12.30;87.70;;;;;;5049734;28;20029;-68
2023/09/10 11:41:55;;;;;;;38.13;22.63;;;12.20;87.20;;;;;;5050996;28;20081;-68
2023/09/10 11:44:22;;;;;;;45.38;24.15;;;12.10;87.20;;;;;;5053438;28;20031;-68
2023/09/10 11:46:53;;;;;;;43.40;24.48;;;12.00;87.40;;;;;;5054403;28;20033;-68
2023/09/10 11:49:23;;;;;;;45.63;25.42;;;12.00;87.90;;;;;;5053985;28;20119;-67
2023/09/10 11:51:52;;;;;;;44.53;26.90;;;12.00;88.20;;;;;;5049541;28;20090;-67
2023/09/10 11:54:20;;;;;;;47.70;27.80;;;12.00;88.20;;;;;;5052395;28;20028;-67
2023/09/10 11:56:58;;;;;;;57.53;29.08;;;12.00;88.20;;;;;;5050541;28;20021;-67
2023/09/10 11:59:31;;;;;;;;;;;11.90;87.60;;;;;;5053947;28;20076;-67
2023/09/10 12:02:00;;;;;;;55.17;31.02;;;11.70;87.90;;;;;;5053842;28;19908;-68
2023/09/10 12:04:32;;;;;;;53.28;30.98;;;11.60;88.30;;;;;;5055570;28;20053;-68
2023/09/10 12:07:01;;;;;;;54.47;30.45;;;11.50;89.30;;;;;;5050754;28;20020;-68
2023/09/10 12:09:32;;;;;;;56.33;30.85;;;11.60;89.90;;;;;;5056504;28;20023;-69
2023/09/10 12:12:05;;;;;;;54.42;30.48;;;11.60;89.20;;;;;;5052521;28;20041;-68
2023/09/10 12:14:32;;;;;;;44.40;24.20;;;11.60;89.60;;;;;;5053244;28;20080;-69
2023/09/10 12:17:00;;;;;;;37.55;20.83;;;11.60;89.40;;;;;;5050519;28;20035;-69
2023/09/10 12:19:28;;;;;;;36.65;22.13;;;11.60;89.10;;;;;;5052700;28;20054;-68
2023/09/10 12:21:56;;;;;;;42.03;21.75;;;11.70;88.70;;;;;;5051674;28;20088;-70
2023/09/10 12:24:23;;;;;;;47.95;25.00;;;11.60;89.00;;;;;;5050809;28;20502;-67
2023/09/10 12:26:51;;;;;;;42.30;22.92;;;11.60;89.20;;;;;;5053106;28;20126;-69
2023/09/10 12:29:20;;;;;;;38.80;22.13;;;11.50;89.60;;;;;;5056274;28;20044;-66
2023/09/10 12:31:52;;;;;;;35.90;18.75;;;11.50;90.00;;;;;;5054850;28;20028;-67
2023/09/10 12:34:21;;;;;;;30.88;17.40;;;11.50;89.60;;;;;;5053187;28;20025;-67
2023/09/10 12:36:51;;;;;;;27.65;15.68;;;11.50;90.00;;;;;;5051693;28;20026;-69
2023/09/10 12:39:23;;;;;;;31.15;16.35;;;11.50;89.80;;;;;;5041960;28;20048;-68
2023/09/10 12:41:52;;;;;;;25.20;15.52;;;11.50;89.30;;;;;;5041787;28;20029;-68
2023/09/10 12:44:21;;;;;;;31.45;16.52;;;11.30;89.80;;;;;;5050591;28;20082;-68
2023/09/10 12:46:49;;;;;;;33.00;16.15;;;11.30;90.10;;;;;;5043876;28;20025;-69
2023/09/10 12:49:17;;;;;;;31.30;16.17;;;11.30;90.10;;;;;;5047889;28;20116;-68
2023/09/10 12:51:45;;;;;;;29.15;16.27;;;11.20;90.30;;;;;;5051056;28;20037;-68
2023/09/10 12:54:14;;;;;;;35.47;17.33;;;11.10;90.50;;;;;;5056505;28;20024;-68
2023/09/10 12:56:42;;;;;;;35.63;18.48;;;11.20;90.60;;;;;;5049027;28;20036;-68
2023/09/10 12:59:10;;;;;;;34.75;18.33;;;11.10;90.30;;;;;;5051572;28;20107;-67
2023/09/10 13:01:41;;;;;;;41.58;20.08;;;11.10;90.50;;;;;;5052589;28;20732;-68
2023/09/10 13:04:08;;;;;;;41.90;22.20;;;11.00;90.60;;;;;;5058292;28;20021;-67
2023/09/10 13:06:35;;;;;;;;;;;10.90;90.80;;;;;;5048582;28;20033;-67
2023/09/10 13:09:04;;;;;;;60.70;29.70;;;10.90;90.90;;;;;;5049043;28;20435;-67
2023/09/10 13:11:33;;;;;;;56.85;28.65;;;10.80;90.90;;;;;;5053217;28;20024;-67
2023/09/10 13:14:01;;;;;;;47.67;24.27;;;10.90;91.00;;;;;;5052846;28;20575;-65
2023/09/10 13:16:29;;;;;;;37.50;19.77;;;10.80;91.10;;;;;;5049857;28;20104;-67
2023/09/10 13:18:56;;;;;;;32.67;16.48;;;10.80;91.20;;;;;;5047434;28;20037;-67
2023/09/10 13:21:24;;;;;;;29.65;14.90;;;10.80;91.00;;;;;;5051695;28;20110;-65
2023/09/10 13:23:50;;;;;;;;;;;10.70;91.20;;;;;;5053723;28;20110;-67
2023/09/10 13:26:18;;;;;;;30.90;14.68;;;10.70;91.20;;;;;;5056035;28;19912;-69
2023/09/10 13:28:45;;;;;;;26.13;13.40;;;10.60;91.30;;;;;;5055704;28;20060;-67
2023/09/10 13:31:12;;;;;;;;;;;10.60;91.40;;;;;;5060596;28;20036;-65
2023/09/10 13:33:40;;;;;;;31.75;13.20;;;10.50;91.50;;;;;;5052337;28;19924;-67
2023/09/10 13:36:07;;;;;;;;;;;10.50;91.60;;;;;;5046409;28;20017;-66
2023/09/10 13:38:34;;;;;;;21.58;12.35;;;10.40;91.60;;;;;;5052328;28;19925;-67
2023/09/10 13:41:00;;;;;;;;;;;10.40;91.80;;;;;;5055825;28;20025;-68
2023/09/10 13:43:29;;;;;;;20.05;10.38;;;10.30;91.90;;;;;;5051255;28;19920;-67
2023/09/10 13:45:57;;;;;;;21.77;11.50;;;10.30;92.20;;;;;;5047467;28;20040;-67
2023/09/10 13:48:24;;;;;;;21.58;11.80;;;10.40;92.00;;;;;;5054524;28;20058;-66
2023/09/10 13:50:51;;;;;;;;;;;10.50;91.90;;;;;;5055706;28;20381;-67
2023/09/10 13:53:18;;;;;;;19.20;11.02;;;10.50;92.00;;;;;;5057017;28;19920;-67
2023/09/10 13:55:46;;;;;;;;;;;10.50;92.00;;;;;;5062895;28;20029;-67
2023/09/10 13:58:13;;;;;;;17.10;10.50;;;10.40;92.00;;;;;;5050176;28;20051;-67
2023/09/10 14:00:41;;;;;;;;;;;10.40;92.10;;;;;;5053677;28;20045;-68
2023/09/10 14:03:09;;;;;;;21.87;10.93;;;10.30;92.10;;;;;;5057543;28;19917;-67
2023/09/10 14:05:37;;;;;;;22.77;9.23;;;10.30;92.30;;;;;;5052689;28;20033;-67
2023/09/10 14:08:05;;;;;;;20.08;9.73;;;10.40;92.50;;;;;;5053979;28;20035;-67
2023/09/10 14:10:33;;;;;;;16.92;9.57;;;10.40;92.30;;;;;;5054569;28;20051;-67
2023/09/10 14:13:00;;;;;;;23.00;10.40;;;10.40;92.00;;;;;;5050751;28;20038;-67
2023/09/10 14:15:27;;;;;;;19.35;8.98;;;10.30;92.10;;;;;;5049007;28;20025;-66
2023/09/10 14:17:54;;;;;;;;;;;10.30;92.30;;;;;;5057159;28;20025;-67
2023/09/10 14:20:21;;;;;;;16.48;8.98;;;10.30;92.30;;;;;;5051986;28;19915;-67
2023/09/10 14:22:49;;;;;;;;;;;10.20;92.30;;;;;;5053644;28;20037;-66
2023/09/10 14:25:17;;;;;;;14.00;7.72;;;10.20;92.30;;;;;;5049224;28;20312;-67
2023/09/10 14:27:43;;;;;;;;;;;10.10;92.40;;;;;;5055703;28;20043;-67
2023/09/10 14:30:14;;;;;;;18.20;8.82;;;10.00;92.30;;;;;;5053540;28;19908;-67
2023/09/10 14:32:42;;;;;;;15.55;9.45;;;10.10;92.70;;;;;;5056353;28;20037;-68
2023/09/10 14:35:09;;;;;;;15.57;8.80;;;10.10;92.60;;;;;;5047897;28;20017;-67
2023/09/10 14:37:37;;;;;;;18.23;9.55;;;10.10;92.60;;;;;;5050961;28;20021;-68
2023/09/10 14:40:06;;;;;;;;;;;10.10;92.80;;;;;;5051554;28;20124;-68
2023/09/10 14:42:35;;;;;;;15.18;7.97;;;10.10;92.60;;;;;;5048069;28;19946;-67
2023/09/10 14:45:06;;;;;;;17.00;8.32;;;10.00;92.30;;;;;;5038588;28;20039;-67
2023/09/10 14:47:33;;;;;;;14.27;7.88;;;9.90;92.70;;;;;;5051885;28;20493;-68
2023/09/10 14:50:00;;;;;;;;;;;10.00;92.70;;;;;;5052933;28;20021;-67
2023/09/10 14:52:27;;;;;;;16.45;6.82;;;10.00;92.60;;;;;;5059852;28;19916;-67
2023/09/10 14:54:55;;;;;;;17.95;7.50;;;9.80;92.70;;;;;;5053829;28;20056;-67
2023/09/10 14:57:22;;;;;;;13.80;6.78;;;9.80;92.90;;;;;;5053804;28;20032;-67
2023/09/10 14:59:49;;;;;;;12.38;6.50;;;9.80;92.80;;;;;;5052189;28;20032;-68
2023/09/10 15:02:16;;;;;;;;;;;9.80;93.00;;;;;;5052168;28;20025;-66
2023/09/10 15:04:44;;;;;;;14.70;7.70;;;9.90;92.50;;;;;;5060317;28;19915;-67
2023/09/10 15:07:14;;;;;;;18.52;9.18;;;9.80;92.70;;;;;;5058136;28;20048;-67
2023/09/10 15:09:42;;;;;;;19.10;8.70;;;9.80;92.90;;;;;;5058640;28;20021;-66
2023/09/10 15:12:09;;;;;;;20.60;9.90;;;9.80;92.80;;;;;;5053298;28;20037;-67
2023/09/10 15:14:37;;;;;;;18.52;9.63;;;9.80;92.80;;;;;;5062450;28;20020;-67
2023/09/10 15:17:04;;;;;;;16.40;8.65;;;9.80;92.90;;;;;;5057240;28;20058;-67
2023/09/10 15:19:36;;;;;;;;;;;9.70;93.00;;;;;;5057621;28;20070;-70
2023/09/10 15:22:04;;;;;;;18.35;10.02;;;9.60;92.90;;;;;;5055597;28;19924;-67
2023/09/10 15:24:32;;;;;;;20.80;10.18;;;9.70;93.20;;;;;;5058580;28;20035;-67